Time;durP1;ratioP1;P1;durP2;ratioP2;P2;SDS_P1;SDS_P2;PMS_P1;PMS_P2;Temp;Humidity;BMP_temperature;BMP_pressure;BME280_temperature;BME280_humidity;BME280_pressure;Samples;Min_cycle;Max_cycle;Signal;HPM_P1;HPM_P2
2021/10/15 00:01:35;;;;;;;18.60;5.43;;;;;21.80;99696.00;;;;5086518;28;20051;-76
2021/10/15 00:04:04;;;;;;;24.17;4.50;;;;;22.00;99700.00;;;;5089599;28;20059;-76
2021/10/15 00:06:34;;;;;;;20.13;3.95;;;;;22.10;99703.00;;;;5087755;28;20044;-74
2021/10/15 00:09:03;;;;;;;16.90;4.38;;;;;22.00;99714.00;;;;5085695;28;20055;-76
2021/10/15 00:11:33;;;;;;;23.02;4.55;;;;;21.80;99700.00;;;;5085578;28;20044;-74
2021/10/15 00:14:02;;;;;;;22.40;4.03;;;;;21.70;99700.00;;;;5086053;28;20047;-76
2021/10/15 00:16:32;;;;;;;21.88;4.68;;;;;21.70;99699.00;;;;5085966;28;20046;-76
2021/10/15 00:19:01;;;;;;;20.92;4.10;;;;;21.60;99712.00;;;;5088812;28;20047;-76
2021/10/15 00:21:31;;;;;;;19.63;3.83;;;;;21.60;99704.00;;;;5105946;28;20422;-74
2021/10/15 00:24:00;;;;;;;22.45;4.63;;;;;21.50;99718.00;;;;5105023;28;20491;-76
2021/10/15 00:26:30;;;;;;;24.83;5.05;;;;;21.60;99714.00;;;;5105044;28;20606;-76
2021/10/15 00:28:59;;;;;;;23.40;4.22;;;;;21.50;99722.00;;;;5103676;28;20065;-74
2021/10/15 00:31:29;;;;;;;15.15;3.88;;;;;21.60;99718.00;;;;5105911;28;20066;-74
2021/10/15 00:33:58;;;;;;;21.25;4.57;;;;;21.50;99736.00;;;;5105632;28;20044;-75
2021/10/15 00:36:28;;;;;;;16.95;4.47;;;;;21.60;99737.00;;;;5089735;28;20055;-76
2021/10/15 00:38:57;;;;;;;27.13;4.75;;;;;21.70;99751.00;;;;5108818;28;20050;-75
2021/10/15 00:41:27;;;;;;;19.17;5.07;;;;;21.70;99751.00;;;;5109213;28;20050;-74
2021/10/15 00:44:11;;;;;;;19.33;4.70;;;;;21.80;99741.00;;;;5104930;28;20039;-75
2021/10/15 00:46:42;;;;;;;23.65;4.68;;;;;21.80;99747.00;;;;5081420;28;20078;-74
2021/10/15 00:49:14;;;;;;;22.27;4.60;;;;;21.60;99733.00;;;;5097245;28;20044;-75
2021/10/15 00:51:46;;;;;;;20.65;4.82;;;;;21.40;99735.00;;;;5088564;28;20111;-75
2021/10/15 00:54:18;;;;;;;20.83;4.18;;;;;21.20;99751.00;;;;5087405;28;20416;-75
2021/10/15 00:56:48;;;;;;;25.10;4.65;;;;;21.20;99748.00;;;;5070134;28;20549;-75
2021/10/15 00:59:18;;;;;;;22.27;5.10;;;;;21.10;99733.00;;;;5087824;28;20051;-75
2021/10/15 01:01:47;;;;;;;28.02;5.35;;;;;21.10;99733.00;;;;5088088;28;20044;-74
2021/10/15 01:04:18;;;;;;;27.08;5.03;;;;;21.10;99736.00;;;;5088462;28;20127;-75
2021/10/15 01:06:47;;;;;;;22.70;5.85;;;;;21.00;99726.00;;;;5088257;28;20426;-76
2021/10/15 01:09:18;;;;;;;19.23;4.80;;;;;21.00;99705.00;;;;5087753;28;20048;-76
2021/10/15 01:11:48;;;;;;;;;;;;;20.90;99719.00;;;;5088294;28;20048;-75
2021/10/15 01:14:18;;;;;;;19.55;4.78;;;;;20.90;99710.00;;;;5087289;28;19924;-75
2021/10/15 01:16:48;;;;;;;24.38;4.38;;;;;20.90;99732.00;;;;5087577;28;20039;-74
2021/10/15 01:19:17;;;;;;;23.67;5.20;;;;;20.80;99733.00;;;;5088197;28;20040;-74
2021/10/15 01:21:46;;;;;;;21.95;5.30;;;;;20.70;99750.00;;;;5088131;28;20097;-76
2021/10/15 01:24:18;;;;;;;18.52;4.95;;;;;20.70;99763.00;;;;5089215;28;20058;-75
2021/10/15 01:26:47;;;;;;;22.10;5.03;;;;;20.60;99760.00;;;;5087465;28;20058;-76
2021/10/15 01:29:17;;;;;;;26.20;5.60;;;;;20.50;99760.00;;;;5070474;28;20097;-76
2021/10/15 01:31:46;;;;;;;17.17;5.10;;;;;20.50;99762.00;;;;5086706;28;20071;-77
2021/10/15 01:34:17;;;;;;;22.05;4.90;;;;;20.40;99754.00;;;;5086356;28;20048;-75
2021/10/15 01:36:46;;;;;;;23.88;4.72;;;;;20.40;99774.00;;;;5086353;28;20052;-75
2021/10/15 01:39:16;;;;;;;24.52;5.93;;;;;20.30;99796.00;;;;5087233;28;20040;-75
2021/10/15 01:41:45;;;;;;;21.20;5.22;;;;;20.30;99768.00;;;;5067860;28;20093;-75
2021/10/15 01:44:15;;;;;;;17.50;5.60;;;;;20.30;99769.00;;;;5087394;28;20056;-74
2021/10/15 01:46:44;;;;;;;30.58;5.85;;;;;20.30;99768.00;;;;5086080;28;20051;-75
2021/10/15 01:49:14;;;;;;;25.58;5.55;;;;;20.30;99778.00;;;;5086491;28;20056;-76
2021/10/15 01:51:44;;;;;;;19.83;5.78;;;;;20.20;99763.00;;;;5086662;28;20044;-75
2021/10/15 01:54:14;;;;;;;23.97;4.70;;;;;20.20;99784.00;;;;5086596;28;20052;-76
2021/10/15 01:56:43;;;;;;;22.60;5.25;;;;;20.30;99762.00;;;;5087661;28;20136;-75
2021/10/15 01:59:13;;;;;;;27.60;6.22;;;;;20.30;99748.00;;;;5085819;28;20048;-75
2021/10/15 02:01:43;;;;;;;20.45;5.45;;;;;20.30;99748.00;;;;5086516;28;20048;-76
2021/10/15 02:04:13;;;;;;;28.67;5.28;;;;;20.30;99740.00;;;;5086470;28;20768;-76
2021/10/15 02:06:42;;;;;;;19.65;4.88;;;;;20.40;99740.00;;;;5087898;28;20067;-75
2021/10/15 02:09:12;;;;;;;30.27;5.57;;;;;20.30;99751.00;;;;5087221;28;20044;-76
2021/10/15 02:11:43;;;;;;;19.48;5.13;;;;;20.30;99733.00;;;;5086532;28;20063;-76
2021/10/15 02:14:14;;;;;;;31.23;5.20;;;;;20.30;99723.00;;;;5086653;28;20055;-75
2021/10/15 02:16:43;;;;;;;19.83;4.63;;;;;20.30;99729.00;;;;5086488;28;20127;-75
2021/10/15 02:19:12;;;;;;;23.98;5.10;;;;;20.20;99746.00;;;;5086689;28;20431;-75
2021/10/15 02:21:42;;;;;;;23.35;5.30;;;;;20.20;99738.00;;;;5085833;28;20047;-75
2021/10/15 02:24:11;;;;;;;19.73;4.95;;;;;20.10;99744.00;;;;5086004;28;20066;-75
2021/10/15 02:26:41;;;;;;;23.70;5.22;;;;;20.10;99746.00;;;;5086016;28;20131;-75
2021/10/15 02:29:10;;;;;;;14.52;4.45;;;;;20.00;99743.00;;;;5066796;28;20047;-75
2021/10/15 02:31:40;;;;;;;21.05;4.78;;;;;20.10;99744.00;;;;5066962;28;20055;-75
2021/10/15 02:34:09;;;;;;;20.00;5.75;;;;;20.10;99751.00;;;;5087378;28;20101;-75
2021/10/15 02:36:39;;;;;;;25.58;5.50;;;;;20.10;99765.00;;;;5086147;28;20044;-75
2021/10/15 02:39:08;;;;;;;17.90;4.68;;;;;20.10;99770.00;;;;5086718;28;20122;-75
2021/10/15 02:41:38;;;;;;;14.32;4.75;;;;;20.00;99761.00;;;;5086459;28;20089;-75
2021/10/15 02:44:10;;;;;;;20.92;5.00;;;;;20.00;99763.00;;;;5068624;28;20142;-75
2021/10/15 02:46:42;;;;;;;17.23;4.78;;;;;19.90;99788.00;;;;5086847;28;20042;-74
2021/10/15 02:49:12;;;;;;;22.83;4.60;;;;;19.90;99785.00;;;;5087779;28;20119;-75
2021/10/15 02:51:42;;;;;;;17.08;5.18;;;;;19.90;99794.00;;;;5087155;28;20407;-75
2021/10/15 02:54:11;;;;;;;11.63;3.88;;;;;19.90;99810.00;;;;5086850;28;20047;-75
2021/10/15 02:56:41;;;;;;;20.38;4.47;;;;;19.90;99785.00;;;;5087110;28;20048;-75
2021/10/15 02:59:10;;;;;;;17.55;4.65;;;;;19.90;99793.00;;;;5087222;28;20044;-77
2021/10/15 03:01:40;;;;;;;17.50;4.75;;;;;19.90;99788.00;;;;5087674;28;20117;-75
2021/10/15 03:04:10;;;;;;;18.42;4.13;;;;;19.90;99773.00;;;;5069072;28;20044;-75
2021/10/15 03:06:40;;;;;;;27.55;4.70;;;;;19.90;99778.00;;;;5085036;28;20617;-76
2021/10/15 03:09:09;;;;;;;21.17;4.93;;;;;19.90;99764.00;;;;5084307;28;20051;-76
2021/10/15 03:11:38;;;;;;;21.30;4.78;;;;;19.90;99749.00;;;;5084522;28;20047;-76
2021/10/15 03:14:08;;;;;;;27.23;5.53;;;;;19.90;99728.00;;;;5084020;28;20418;-76
2021/10/15 03:16:37;;;;;;;23.10;4.60;;;;;19.90;99725.00;;;;5083691;28;20101;-76
2021/10/15 03:19:07;;;;;;;25.88;5.13;;;;;19.80;99720.00;;;;5083537;28;20155;-76
2021/10/15 03:21:36;;;;;;;22.48;5.05;;;;;19.90;99728.00;;;;5065579;28;20048;-75
2021/10/15 03:24:06;;;;;;;24.38;5.63;;;;;19.90;99723.00;;;;5083569;28;20097;-75
2021/10/15 03:26:35;;;;;;;25.35;5.43;;;;;19.90;99741.00;;;;5083845;28;20442;-76
2021/10/15 03:29:08;;;;;;;27.45;4.57;;;;;19.90;99721.00;;;;5083867;28;20047;-76
2021/10/15 03:31:37;;;;;;;38.90;6.22;;;;;19.90;99713.00;;;;5083300;28;20369;-76
2021/10/15 03:34:07;;;;;;;28.42;5.07;;;;;19.90;99724.00;;;;5083879;28;20564;-76
2021/10/15 03:36:37;;;;;;;24.50;5.25;;;;;19.90;99718.00;;;;5083809;28;20048;-76
2021/10/15 03:39:06;;;;;;;18.67;5.15;;;;;19.90;99694.00;;;;5083670;28;20044;-76
2021/10/15 03:41:36;;;;;;;27.80;5.28;;;;;19.90;99708.00;;;;5083451;28;20044;-75
2021/10/15 03:44:06;;;;;;;28.45;5.22;;;;;19.80;99700.00;;;;5083481;28;20052;-76
2021/10/15 03:46:35;;;;;;;19.70;5.53;;;;;19.80;99714.00;;;;5049618;28;20059;-76
2021/10/15 03:49:05;;;;;;;25.00;5.63;;;;;19.80;99710.00;;;;5083814;28;20079;-76
2021/10/15 03:51:34;;;;;;;24.73;5.50;;;;;19.80;99711.00;;;;5084326;28;20064;-75
2021/10/15 03:54:04;;;;;;;20.92;5.50;;;;;19.90;99749.00;;;;5084595;28;20086;-75
2021/10/15 03:56:33;;;;;;;27.27;5.38;;;;;19.90;99761.00;;;;5086059;28;20048;-76
2021/10/15 03:59:03;;;;;;;21.45;4.97;;;;;19.90;99744.00;;;;5086574;28;20048;-76
2021/10/15 04:01:33;;;;;;;20.75;4.85;;;;;19.90;99753.00;;;;5085685;28;20048;-75
2021/10/15 04:04:03;;;;;;;22.10;5.10;;;;;19.80;99762.00;;;;5086053;28;20048;-75
2021/10/15 04:06:32;;;;;;;24.70;6.28;;;;;19.80;99751.00;;;;5085870;28;20059;-75
2021/10/15 04:09:02;;;;;;;16.98;5.20;;;;;19.80;99778.00;;;;5083466;28;20417;-75
2021/10/15 04:11:31;;;;;;;17.50;4.80;;;;;19.80;99753.00;;;;5089228;28;20085;-76
2021/10/15 04:14:01;;;;;;;24.23;5.15;;;;;19.80;99747.00;;;;5089693;28;20123;-76
2021/10/15 04:16:30;;;;;;;19.35;4.90;;;;;19.80;99751.00;;;;5070041;28;20047;-75
2021/10/15 04:19:00;;;;;;;15.93;4.70;;;;;19.70;99757.00;;;;5087628;28;20506;-75
2021/10/15 04:21:31;;;;;;;19.58;4.57;;;;;19.70;99786.00;;;;5088385;28;20048;-76
2021/10/15 04:24:01;;;;;;;21.30;5.13;;;;;19.70;99789.00;;;;5088390;28;20048;-75
2021/10/15 04:26:31;;;;;;;30.30;4.93;;;;;19.70;99781.00;;;;5087581;28;20660;-75
2021/10/15 04:29:00;;;;;;;19.80;4.78;;;;;19.70;99780.00;;;;5087094;28;20499;-75
2021/10/15 04:31:29;;;;;;;25.50;6.03;;;;;19.80;99780.00;;;;5086856;28;20653;-75
2021/10/15 04:33:59;;;;;;;17.90;5.72;;;;;19.80;99780.00;;;;5087247;28;20089;-75
2021/10/15 04:36:28;;;;;;;20.75;5.03;;;;;19.90;99759.00;;;;5088865;28;20052;-75
2021/10/15 04:38:57;;;;;;;16.88;5.03;;;;;19.80;99756.00;;;;5088259;28;20487;-75
2021/10/15 04:41:27;;;;;;;16.98;5.00;;;;;19.80;99740.00;;;;5088105;28;20054;-76
2021/10/15 04:43:56;;;;;;;26.77;5.55;;;;;19.80;99714.00;;;;5089027;28;20110;-75
2021/10/15 04:46:27;;;;;;;22.95;5.35;;;;;19.80;99729.00;;;;5086994;28;20127;-75
2021/10/15 04:48:57;;;;;;;;;;;;;19.80;99741.00;;;;5087536;28;20044;-77
2021/10/15 04:51:26;;;;;;;19.98;5.85;;;;;19.90;99738.00;;;;5088077;28;20467;-76
2021/10/15 04:53:56;;;;;;;23.75;5.55;;;;;19.90;99721.00;;;;5088222;28;20059;-75
2021/10/15 04:56:25;;;;;;;26.33;5.13;;;;;19.90;99725.00;;;;5086238;28;20055;-76
2021/10/15 04:58:55;;;;;;;25.65;5.63;;;;;19.80;99731.00;;;;5087544;28;20036;-75
2021/10/15 05:01:24;;;;;;;20.55;5.20;;;;;19.70;99737.00;;;;5087222;28;20044;-75
2021/10/15 05:03:53;;;;;;;26.60;5.43;;;;;19.70;99713.00;;;;5069527;28;20511;-76
2021/10/15 05:06:23;;;;;;;23.85;5.85;;;;;19.70;99731.00;;;;5087718;28;20071;-76
2021/10/15 05:11:52;;;;;;;21.40;5.13;;;;;19.60;99719.00;;;;5060380;28;20060;-75
2021/10/15 05:14:21;;;;;;;16.33;4.72;;;;;19.60;99734.00;;;;5087252;28;20055;-76
2021/10/15 05:16:54;;;;;;;24.90;5.68;;;;;19.60;99741.00;;;;5086669;28;20095;-76
2021/10/15 05:19:23;;;;;;;26.23;6.55;;;;;19.60;99749.00;;;;5087000;28;20509;-76
2021/10/15 05:21:53;;;;;;;15.25;4.95;;;;;19.70;99716.00;;;;5087600;28;20495;-76
2021/10/15 05:24:23;;;;;;;25.00;5.57;;;;;19.60;99734.00;;;;5088301;28;20044;-75
2021/10/15 05:26:52;;;;;;;18.05;5.38;;;;;19.70;99729.00;;;;5086292;28;20052;-76
2021/10/15 05:29:22;;;;;;;21.20;5.57;;;;;19.70;99751.00;;;;5085741;28;20714;-76
2021/10/15 05:31:51;;;;;;;29.23;6.55;;;;;19.70;99761.00;;;;5085729;28;20048;-76
2021/10/15 05:34:21;;;;;;;20.90;5.80;;;;;19.70;99769.00;;;;5087855;28;20052;-76
2021/10/15 05:36:50;;;;;;;17.30;5.32;;;;;19.70;99780.00;;;;5088859;28;20977;-76
2021/10/15 05:39:20;;;;;;;22.92;5.65;;;;;19.80;99756.00;;;;5088261;28;20093;-76
2021/10/15 05:41:49;;;;;;;22.90;5.32;;;;;19.80;99779.00;;;;5088163;28;20040;-76
2021/10/15 05:44:19;;;;;;;20.02;5.47;;;;;19.90;99769.00;;;;5088654;28;20400;-76
2021/10/15 05:46:48;;;;;;;19.98;5.72;;;;;19.90;99786.00;;;;5088048;28;20094;-76
2021/10/15 05:49:18;;;;;;;21.50;5.38;;;;;19.80;99779.00;;;;5087836;28;20047;-76
2021/10/15 05:51:50;;;;;;;20.50;5.72;;;;;19.80;99758.00;;;;5070317;28;20545;-75
2021/10/15 05:54:33;;;;;;;23.50;6.18;;;;;19.80;99787.00;;;;5089819;28;20670;-76
2021/10/15 05:57:16;;;;;;;29.05;6.18;;;;;19.80;99763.00;;;;5087562;28;20514;-76
2021/10/15 05:59:46;;;;;;;14.82;6.00;;;;;19.70;99768.00;;;;5088026;28;20044;-76
2021/10/15 06:02:15;;;;;;;24.83;5.57;;;;;19.70;99773.00;;;;5087683;28;20194;-77
2021/10/15 06:15:36;;;;;;;20.17;5.43;;;;;19.70;99777.00;;;;5086735;28;20522;-76
2021/10/15 06:18:15;;;;;;;15.43;5.28;;;;;19.70;99756.00;;;;5085657;28;20098;-77
2021/10/15 06:20:46;;;;;;;23.17;5.82;;;;;19.80;99740.00;;;;5086214;28;20063;-76
2021/10/15 06:23:16;;;;;;;22.52;5.78;;;;;19.80;99730.00;;;;5084803;28;20595;-76
2021/10/15 06:25:47;;;;;;;21.23;5.75;;;;;19.90;99747.00;;;;5086530;28;20066;-76
2021/10/15 06:28:18;;;;;;;20.00;5.10;;;;;19.80;99728.00;;;;5085085;28;20040;-76
2021/10/15 06:30:49;;;;;;;20.38;5.78;;;;;19.80;99755.00;;;;5087010;28;20032;-76
2021/10/15 06:33:18;;;;;;;23.70;6.00;;;;;19.90;99747.00;;;;5083687;28;20052;-76
2021/10/15 06:35:48;;;;;;;28.05;6.68;;;;;20.00;99757.00;;;;5085041;28;20297;-76
2021/10/15 06:38:17;;;;;;;24.55;7.35;;;;;20.00;99754.00;;;;5066420;28;20637;-76
2021/10/15 06:40:47;;;;;;;19.08;5.78;;;;;20.00;99733.00;;;;5086272;28;20067;-76
2021/10/15 06:43:17;;;;;;;23.40;5.38;;;;;20.00;99743.00;;;;5084880;28;20048;-76
2021/10/15 06:45:47;;;;;;;22.58;6.13;;;;;20.10;99722.00;;;;5085468;28;20048;-75
2021/10/15 06:48:16;;;;;;;29.27;6.80;;;;;20.20;99743.00;;;;5085839;28;20052;-75
2021/10/15 06:50:48;;;;;;;26.85;7.15;;;;;20.20;99766.00;;;;5085093;28;20077;-76
2021/10/15 06:53:18;;;;;;;25.27;7.32;;;;;20.20;99757.00;;;;5085888;28;20040;-76
2021/10/15 06:55:47;;;;;;;30.17;6.60;;;;;20.20;99747.00;;;;5084257;28;20051;-75
2021/10/15 06:58:17;;;;;;;21.13;5.88;;;;;20.20;99768.00;;;;5086513;28;20051;-76
2021/10/15 07:00:47;;;;;;;26.85;6.80;;;;;20.20;99766.00;;;;5086823;28;20062;-76
2021/10/15 07:03:19;;;;;;;26.23;8.05;;;;;20.40;99790.00;;;;5086350;28;20134;-75
2021/10/15 07:05:48;;;;;;;24.38;6.78;;;;;20.60;99773.00;;;;5084964;28;20466;-76
2021/10/15 07:08:18;;;;;;;24.20;6.65;;;;;20.60;99795.00;;;;5084012;28;20093;-76
2021/10/15 07:10:48;;;;;;;24.90;6.88;;;;;20.60;99808.00;;;;5084987;28;20064;-75
2021/10/15 07:13:17;;;;;;;24.25;7.25;;;;;20.50;99820.00;;;;5084294;28;20043;-75
2021/10/15 07:15:50;;;;;;;24.08;7.40;;;;;20.50;99831.00;;;;5084743;28;20036;-76
2021/10/15 07:18:20;;;;;;;26.65;7.50;;;;;20.50;99840.00;;;;5083677;28;20480;-76
2021/10/15 07:20:51;;;;;;;27.55;8.40;;;;;20.50;99855.00;;;;5083946;28;20118;-75
2021/10/15 07:23:21;;;;;;;26.65;7.50;;;;;20.60;99859.00;;;;5083725;28;20043;-76
2021/10/15 07:25:50;;;;;;;24.70;8.15;;;;;20.60;99877.00;;;;5085285;28;20498;-75
2021/10/15 07:28:20;;;;;;;22.73;8.40;;;;;20.60;99881.00;;;;5083754;28;20048;-76
2021/10/15 07:30:50;;;;;;;32.65;10.48;;;;;20.50;99912.00;;;;5083506;28;20149;-76
2021/10/15 07:33:20;;;;;;;34.92;9.93;;;;;20.60;99892.00;;;;5083998;28;20078;-76
2021/10/15 07:35:49;;;;;;;29.73;10.80;;;;;20.60;99933.00;;;;5084223;28;20043;-75
2021/10/15 07:38:19;;;;;;;34.95;11.38;;;;;20.60;99936.00;;;;5084655;28;20516;-76
2021/10/15 07:40:49;;;;;;;45.88;16.67;;;;;20.60;99968.00;;;;5086736;28;20127;-75
2021/10/15 07:43:20;;;;;;;64.45;25.70;;;;;20.60;99988.00;;;;5086964;28;20044;-77
2021/10/15 07:45:49;;;;;;;62.42;24.85;;;;;20.60;100008.00;;;;5087719;28;20055;-76
2021/10/15 07:48:19;;;;;;;56.03;22.95;;;;;20.60;99993.00;;;;5089807;28;20418;-75
2021/10/15 07:50:49;;;;;;;70.95;22.33;;;;;20.60;100013.00;;;;5089464;28;20067;-75
2021/10/15 07:53:18;;;;;;;59.60;23.35;;;;;20.60;100002.00;;;;5090657;28;20047;-75
2021/10/15 07:55:48;;;;;;;53.42;20.65;;;;;20.60;100013.00;;;;5089102;28;20040;-76
2021/10/15 07:58:17;;;;;;;56.30;19.58;;;;;20.60;100003.00;;;;5089479;28;20048;-76
2021/10/15 08:00:46;;;;;;;48.17;17.35;;;;;20.60;100002.00;;;;5073052;28;20062;-75
2021/10/15 08:03:16;;;;;;;46.22;15.18;;;;;20.70;100024.00;;;;5088685;28;20423;-75
2021/10/15 08:05:46;;;;;;;36.80;13.35;;;;;20.80;100053.00;;;;5070505;28;20133;-75
2021/10/15 08:08:15;;;;;;;45.00;12.52;;;;;20.80;100045.00;;;;5087647;28;20059;-75
2021/10/15 08:10:47;;;;;;;44.47;11.80;;;;;20.80;100087.00;;;;5089605;28;20056;-76
2021/10/15 08:13:17;;;;;;;32.03;11.63;;;;;20.80;100095.00;;;;5090126;28;20040;-77
2021/10/15 08:15:47;;;;;;;41.33;11.18;;;;;20.80;100101.00;;;;5089506;28;20040;-75
2021/10/15 08:18:16;;;;;;;31.77;10.40;;;;;20.90;100096.00;;;;5089744;28;20799;-75
2021/10/15 08:20:46;;;;;;;34.40;11.38;;;;;20.80;100092.00;;;;5071189;28;20056;-75
2021/10/15 08:23:16;;;;;;;33.45;10.68;;;;;20.80;100092.00;;;;5071559;28;20048;-76
2021/10/15 08:25:47;;;;;;;31.33;9.68;;;;;20.80;100096.00;;;;5071126;28;20152;-76
2021/10/15 08:28:16;;;;;;;20.10;8.35;;;;;20.70;100107.00;;;;5089536;28;20040;-76
2021/10/15 08:31:06;;;;;;;20.88;7.50;;;;;20.70;100117.00;;;;5089215;28;20124;-74
2021/10/15 08:33:36;;;;;;;16.73;5.13;;;;;20.60;100119.00;;;;5089047;28;20032;-76
2021/10/15 08:36:06;;;;;;;17.63;6.10;;;;;20.50;100116.00;;;;5088280;28;20564;-77
2021/10/15 08:38:36;;;;;;;16.10;5.68;;;;;20.30;100136.00;;;;5089408;28;20113;-78
2021/10/15 08:41:05;;;;;;;18.17;6.28;;;;;20.20;100143.00;;;;5089209;28;20032;-79
2021/10/15 08:43:38;;;;;;;18.02;5.68;;;;;20.10;100158.00;;;;5071962;28;20890;-78
2021/10/15 08:46:08;;;;;;;17.63;6.22;;;;;20.00;100194.00;;;;5100653;28;20075;-79
2021/10/15 08:48:39;;;;;;;15.40;5.90;;;;;19.90;100224.00;;;;5100083;28;20048;-78
2021/10/15 08:51:09;;;;;;;10.57;5.07;;;;;19.90;100251.00;;;;5071574;28;20069;-78
2021/10/15 08:53:58;;;;;;;14.80;6.07;;;;;19.90;100266.00;;;;5088984;28;20400;-79
2021/10/15 08:56:31;;;;;;;9.88;5.30;;;;;19.80;100292.00;;;;5070009;28;20521;-78
2021/10/15 08:59:07;;;;;;;11.82;4.90;;;;;19.60;100302.00;;;;5070640;28;20544;-77
2021/10/15 09:01:45;;;;;;;11.70;4.78;;;;;19.60;100315.00;;;;5088768;28;20475;-77
2021/10/15 09:04:20;;;;;;;7.88;4.30;;;;;19.60;100317.00;;;;5088906;28;20040;-78
2021/10/15 09:06:50;;;;;;;15.13;5.00;;;;;19.60;100305.00;;;;5088118;28;20046;-78
2021/10/15 09:19:59;;;;;;;21.23;7.60;;;;;19.70;100309.00;;;;5118318;27;20436;-79
2021/10/15 09:22:31;;;;;;;24.15;7.40;;;;;19.60;100325.00;;;;5102779;28;20043;-80
2021/10/15 09:25:12;;;;;;;26.58;8.23;;;;;19.60;100322.00;;;;5103919;28;20490;-81
2021/10/15 09:27:49;;;;;;;14.68;4.57;;;;;19.40;100324.00;;;;5112498;28;20036;-79
2021/10/15 09:30:22;;;;;;;9.27;3.40;;;;;19.20;100341.00;;;;5123222;27;20036;-78
2021/10/15 09:32:56;;;;;;;9.02;2.40;;;;;19.00;100337.00;;;;5123160;27;20054;-78
2021/10/15 09:35:29;;;;;;;5.88;1.83;;;;;18.80;100331.00;;;;5123338;27;20046;-77
2021/10/15 09:38:10;;;;;;;11.35;2.17;;;;;18.60;100323.00;;;;5123088;27;20101;-78
2021/10/15 09:40:46;;;;;;;32.30;3.70;;;;;18.60;100302.00;;;;5102790;28;20044;-78
2021/10/15 09:43:16;;;;;;;14.65;2.92;;;;;18.60;100290.00;;;;5103342;28;20413;-78
2021/10/15 09:45:52;;;;;;;9.90;2.97;;;;;18.60;100304.00;;;;5102792;28;20059;-77
2021/10/15 09:48:31;;;;;;;15.02;2.80;;;;;18.60;100316.00;;;;5102331;28;20418;-77
2021/10/15 09:51:16;;;;;;;25.05;3.22;;;;;18.60;100298.00;;;;5102911;28;20123;-77
2021/10/15 09:54:14;;;;;;;16.20;3.33;;;;;18.50;100291.00;;;;5102849;28;20044;-78
2021/10/15 09:56:49;;;;;;;16.25;3.05;;;;;18.50;100268.00;;;;5098438;28;20587;-78
2021/10/15 09:59:19;;;;;;;15.35;4.18;;;;;18.60;100261.00;;;;5103353;28;20044;-78
2021/10/15 10:01:49;;;;;;;7.80;3.83;;;;;18.60;100282.00;;;;5103356;28;20135;-79
2021/10/15 10:04:18;;;;;;;16.33;5.18;;;;;18.70;100274.00;;;;5103076;28;20677;-80
2021/10/15 10:06:49;;;;;;;16.42;5.30;;;;;18.90;100276.00;;;;5118372;28;20078;-80
2021/10/15 10:09:19;;;;;;;21.10;5.43;;;;;18.90;100269.00;;;;5113462;28;20047;-80
2021/10/15 10:11:48;;;;;;;22.75;4.45;;;;;18.80;100255.00;;;;5124129;27;20451;-80
2021/10/15 10:14:21;;;;;;;12.38;4.50;;;;;18.80;100266.00;;;;5121958;28;20051;-78
2021/10/15 10:16:55;;;;;;;6.88;2.85;;;;;18.70;100252.00;;;;5123977;28;20456;-79
2021/10/15 10:19:28;;;;;;;19.25;3.97;;;;;18.70;100255.00;;;;5117350;27;20116;-79
2021/10/15 10:21:58;;;;;;;24.73;4.57;;;;;18.70;100265.00;;;;5109408;28;20601;-80
2021/10/15 10:24:32;;;;;;;14.35;3.15;;;;;18.70;100271.00;;;;5108259;28;20066;-78
2021/10/15 10:27:02;;;;;;;13.90;3.60;;;;;18.70;100259.00;;;;5108460;28;20036;-79
2021/10/15 10:29:52;;;;;;;16.77;4.38;;;;;18.70;100251.00;;;;5109275;28;20533;-79
2021/10/15 10:32:23;;;;;;;14.40;3.92;;;;;18.70;100247.00;;;;5107789;28;20605;-77
2021/10/15 10:34:54;;;;;;;14.48;3.28;;;;;18.80;100237.00;;;;5107905;28;20032;-78
2021/10/15 10:37:23;;;;;;;17.15;6.07;;;;;19.00;100236.00;;;;5109313;28;20561;-77
2021/10/15 10:40:08;;;;;;;16.73;6.07;;;;;19.00;100243.00;;;;5109656;28;20047;-79
2021/10/15 10:43:06;;;;;;;15.30;4.28;;;;;18.90;100247.00;;;;5110620;28;20036;-79
2021/10/15 10:45:35;;;;;;;22.25;5.80;;;;;18.90;100220.00;;;;5117489;28;20044;-79
2021/10/15 10:48:06;;;;;;;14.77;5.05;;;;;19.00;100223.00;;;;5109680;28;20074;-79
2021/10/15 10:50:35;;;;;;;10.75;4.75;;;;;19.00;100213.00;;;;5108994;28;20081;-78
2021/10/15 10:53:08;;;;;;;11.55;4.70;;;;;19.10;100198.00;;;;5109308;28;20036;-78
2021/10/15 10:55:44;;;;;;;6.60;4.03;;;;;19.00;100198.00;;;;5108801;28;20685;-78
2021/10/15 10:58:35;;;;;;;7.63;3.78;;;;;18.90;100215.00;;;;5108010;28;20073;-80
2021/10/15 11:01:26;;;;;;;11.13;3.63;;;;;19.00;100193.00;;;;5109047;28;20058;-80
2021/10/15 11:03:58;;;;;;;5.03;3.08;;;;;18.90;100223.00;;;;5109231;28;20055;-79
2021/10/15 11:06:56;;;;;;;8.57;3.33;;;;;18.90;100245.00;;;;5109644;28;20047;-78
2021/10/15 11:09:30;;;;;;;6.55;2.70;;;;;18.90;100261.00;;;;5108572;28;20097;-79
2021/10/15 11:12:00;;;;;;;11.75;3.53;;;;;19.00;100264.00;;;;5107767;28;20060;-76
2021/10/15 11:14:56;;;;;;;6.45;3.20;;;;;19.00;100281.00;;;;5108382;28;20421;-77
2021/10/15 11:17:26;;;;;;;5.38;3.13;;;;;19.00;100282.00;;;;5108551;28;20043;-77
2021/10/15 11:20:16;;;;;;;6.28;3.00;;;;;19.00;100290.00;;;;5108366;28;20075;-78
2021/10/15 11:22:54;;;;;;;9.25;3.75;;;;;19.10;100315.00;;;;5108662;28;20417;-77
2021/10/15 11:25:30;;;;;;;8.88;4.07;;;;;19.20;100317.00;;;;5108798;28;20056;-79
2021/10/15 11:28:07;;;;;;;10.55;4.68;;;;;19.20;100334.00;;;;5108579;28;20097;-79
2021/10/15 11:30:40;;;;;;;12.82;5.15;;;;;19.30;100338.00;;;;5105825;28;20069;-78
2021/10/15 11:33:13;;;;;;;12.32;3.08;;;;;19.10;100324.00;;;;5107890;28;20047;-78
2021/10/15 11:35:45;;;;;;;6.10;2.75;;;;;19.20;100345.00;;;;5108431;28;20036;-77
2021/10/15 11:38:21;;;;;;;3.78;2.47;;;;;19.10;100332.00;;;;5108506;28;20463;-78
2021/10/15 11:40:53;;;;;;;4.38;2.40;;;;;19.10;100340.00;;;;5107772;28;20046;-78
2021/10/15 11:43:43;;;;;;;6.60;2.70;;;;;19.10;100323.00;;;;5108412;28;20040;-78
2021/10/15 11:46:17;;;;;;;6.05;3.13;;;;;19.10;100353.00;;;;5107946;28;20593;-78
2021/10/15 11:48:49;;;;;;;4.40;2.63;;;;;19.10;100335.00;;;;5107336;28;20043;-78
2021/10/15 11:51:23;;;;;;;5.00;2.40;;;;;19.10;100323.00;;;;5089663;28;20047;-78
2021/10/15 11:53:58;;;;;;;4.32;2.67;;;;;19.20;100335.00;;;;5107337;28;20043;-79
2021/10/15 11:56:34;;;;;;;9.48;2.90;;;;;19.20;100362.00;;;;5108598;27;20047;-77
2021/10/15 11:59:08;;;;;;;6.05;3.13;;;;;19.20;100350.00;;;;5107423;28;20119;-78
2021/10/15 12:01:38;;;;;;;6.57;2.90;;;;;19.20;100346.00;;;;5106945;28;20126;-77
2021/10/15 12:04:12;;;;;;;9.02;3.42;;;;;19.30;100346.00;;;;5108022;28;20440;-76
2021/10/15 12:06:48;;;;;;;6.10;2.90;;;;;19.40;100312.00;;;;5107730;28;20047;-78
2021/10/15 12:09:23;;;;;;;5.45;2.55;;;;;19.40;100317.00;;;;5107604;28;20049;-76
2021/10/15 12:11:56;;;;;;;8.90;2.72;;;;;19.40;100308.00;;;;5106790;28;20460;-76
2021/10/15 12:14:33;;;;;;;6.93;2.72;;;;;19.60;100284.00;;;;5107387;28;20092;-76
2021/10/15 12:17:08;;;;;;;4.82;2.50;;;;;19.70;100277.00;;;;5107643;28;20067;-77
2021/10/15 12:19:37;;;;;;;8.82;2.60;;;;;19.70;100272.00;;;;5107841;28;20124;-77
2021/10/15 12:22:20;;;;;;;4.53;2.67;;;;;19.80;100230.00;;;;5107142;28;20058;-77
2021/10/15 12:24:56;;;;;;;13.65;5.10;;;;;20.10;100238.00;;;;5107285;28;20040;-77
2021/10/15 12:27:38;;;;;;;9.48;3.55;;;;;20.20;100244.00;;;;5107578;28;20536;-77
2021/10/15 12:30:13;;;;;;;;;;;;;20.30;100245.00;;;;5108041;28;20116;-76
2021/10/15 12:32:43;;;;;;;4.93;2.70;;;;;20.30;100224.00;;;;5106969;28;20018;-75
2021/10/15 12:35:16;;;;;;;12.15;3.60;;;;;20.50;100228.00;;;;5106948;28;20601;-77
2021/10/15 12:37:51;;;;;;;5.97;2.83;;;;;20.50;100228.00;;;;5107466;28;20536;-76
2021/10/15 12:40:25;;;;;;;8.50;2.97;;;;;20.70;100235.00;;;;5107261;28;20043;-76
2021/10/15 12:42:55;;;;;;;5.13;2.65;;;;;20.40;100224.00;;;;5107034;28;20126;-75
2021/10/15 12:45:27;;;;;;;8.90;3.97;;;;;20.40;100192.00;;;;5105958;28;20052;-76
2021/10/15 12:48:10;;;;;;;9.35;3.53;;;;;20.50;100195.00;;;;5107436;28;20043;-76
2021/10/15 12:50:55;;;;;;;7.35;3.05;;;;;20.50;100174.00;;;;5107152;28;20040;-75
2021/10/15 12:53:26;;;;;;;8.73;3.10;;;;;20.50;100181.00;;;;5106764;28;20101;-75